sensor_id;sensor_type;location;lat;lon;timestamp;P1;durP1;ratioP1;P2;durP2;ratioP2
66139;SDS011;52945;51.908;8.364;2023-08-12T00:01:52;6.25;;;3.40;;
66139;SDS011;52945;51.908;8.364;2023-08-12T00:04:52;4.88;;;3.15;;
66139;SDS011;52945;51.908;8.364;2023-08-12T00:07:53;7.45;;;3.25;;
66139;SDS011;52945;51.908;8.364;2023-08-12T00:10:54;4.53;;;3.47;;
66139;SDS011;52945;51.908;8.364;2023-08-12T00:13:54;7.68;;;3.78;;
66139;SDS011;52945;51.908;8.364;2023-08-12T00:16:55;4.82;;;3.60;;
66139;SDS011;52945;51.908;8.364;2023-08-12T00:19:55;5.72;;;3.60;;
66139;SDS011;52945;51.908;8.364;2023-08-12T00:22:56;6.50;;;3.65;;
66139;SDS011;52945;51.908;8.364;2023-08-12T00:25:57;7.55;;;4.03;;
66139;SDS011;52945;51.908;8.364;2023-08-12T00:28:58;6.75;;;4.47;;
66139;SDS011;52945;51.908;8.364;2023-08-12T00:31:59;7.63;;;4.18;;
66139;SDS011;52945;51.908;8.364;2023-08-12T00:35:00;6.80;;;4.45;;
66139;SDS011;52945;51.908;8.364;2023-08-12T00:38:00;6.65;;;3.88;;
66139;SDS011;52945;51.908;8.364;2023-08-12T00:41:01;9.52;;;3.60;;
66139;SDS011;52945;51.908;8.364;2023-08-12T00:44:01;8.77;;;3.88;;
66139;SDS011;52945;51.908;8.364;2023-08-12T00:47:02;7.28;;;4.43;;
66139;SDS011;52945;51.908;8.364;2023-08-12T00:50:03;7.30;;;4.47;;
66139;SDS011;52945;51.908;8.364;2023-08-12T00:53:04;7.88;;;4.30;;
66139;SDS011;52945;51.908;8.364;2023-08-12T00:56:06;11.57;;;5.07;;
66139;SDS011;52945;51.908;8.364;2023-08-12T00:59:07;6.88;;;4.78;;
66139;SDS011;52945;51.908;8.364;2023-08-12T01:02:09;7.22;;;4.38;;
66139;SDS011;52945;51.908;8.364;2023-08-12T01:05:10;7.32;;;4.28;;
66139;SDS011;52945;51.908;8.364;2023-08-12T01:08:11;9.75;;;4.20;;
66139;SDS011;52945;51.908;8.364;2023-08-12T01:11:14;11.30;;;4.65;;
66139;SDS011;52945;51.908;8.364;2023-08-12T01:14:39;7.40;;;4.22;;
66139;SDS011;52945;51.908;8.364;2023-08-12T01:17:42;10.68;;;4.57;;
66139;SDS011;52945;51.908;8.364;2023-08-12T01:20:43;7.72;;;4.38;;
66139;SDS011;52945;51.908;8.364;2023-08-12T01:23:45;6.93;;;4.30;;
66139;SDS011;52945;51.908;8.364;2023-08-12T01:26:46;10.52;;;4.90;;
66139;SDS011;52945;51.908;8.364;2023-08-12T01:29:48;8.52;;;4.32;;
66139;SDS011;52945;51.908;8.364;2023-08-12T01:36:00;11.27;;;4.95;;
66139;SDS011;52945;51.908;8.364;2023-08-12T01:39:09;9.27;;;3.58;;
66139;SDS011;52945;51.908;8.364;2023-08-12T01:42:11;8.50;;;4.30;;
66139;SDS011;52945;51.908;8.364;2023-08-12T01:45:12;8.45;;;4.80;;
66139;SDS011;52945;51.908;8.364;2023-08-12T01:48:12;9.77;;;5.18;;
66139;SDS011;52945;51.908;8.364;2023-08-12T01:51:13;9.63;;;5.15;;
66139;SDS011;52945;51.908;8.364;2023-08-12T01:54:14;12.10;;;5.63;;
66139;SDS011;52945;51.908;8.364;2023-08-12T01:57:14;9.85;;;5.10;;
66139;SDS011;52945;51.908;8.364;2023-08-12T02:00:15;10.98;;;5.85;;
66139;SDS011;52945;51.908;8.364;2023-08-12T02:03:16;9.20;;;5.28;;
66139;SDS011;52945;51.908;8.364;2023-08-12T02:06:16;10.60;;;5.70;;
66139;SDS011;52945;51.908;8.364;2023-08-12T02:09:17;10.45;;;5.47;;
66139;SDS011;52945;51.908;8.364;2023-08-12T02:12:17;13.18;;;5.80;;
66139;SDS011;52945;51.908;8.364;2023-08-12T02:15:18;14.45;;;5.90;;
66139;SDS011;52945;51.908;8.364;2023-08-12T02:18:18;11.32;;;6.38;;
66139;SDS011;52945;51.908;8.364;2023-08-12T02:21:19;10.88;;;5.90;;
66139;SDS011;52945;51.908;8.364;2023-08-12T02:24:20;13.60;;;5.78;;
66139;SDS011;52945;51.908;8.364;2023-08-12T02:27:20;9.30;;;5.97;;
66139;SDS011;52945;51.908;8.364;2023-08-12T02:30:21;12.88;;;6.20;;
66139;SDS011;52945;51.908;8.364;2023-08-12T02:33:21;12.20;;;6.57;;
66139;SDS011;52945;51.908;8.364;2023-08-12T02:36:22;11.90;;;6.10;;
66139;SDS011;52945;51.908;8.364;2023-08-12T02:39:22;10.27;;;5.90;;
66139;SDS011;52945;51.908;8.364;2023-08-12T02:42:23;12.75;;;6.18;;
66139;SDS011;52945;51.908;8.364;2023-08-12T02:45:23;11.32;;;6.22;;
66139;SDS011;52945;51.908;8.364;2023-08-12T02:48:24;12.85;;;6.00;;
66139;SDS011;52945;51.908;8.364;2023-08-12T02:51:25;11.50;;;6.20;;
66139;SDS011;52945;51.908;8.364;2023-08-12T02:54:25;12.68;;;6.60;;
66139;SDS011;52945;51.908;8.364;2023-08-12T02:57:26;12.10;;;6.70;;
66139;SDS011;52945;51.908;8.364;2023-08-12T03:00:27;12.68;;;6.50;;
66139;SDS011;52945;51.908;8.364;2023-08-12T03:03:27;16.40;;;7.03;;
66139;SDS011;52945;51.908;8.364;2023-08-12T03:06:28;12.20;;;6.45;;
66139;SDS011;52945;51.908;8.364;2023-08-12T03:09:28;12.95;;;7.18;;
66139;SDS011;52945;51.908;8.364;2023-08-12T03:12:29;13.35;;;7.03;;
66139;SDS011;52945;51.908;8.364;2023-08-12T03:15:30;13.15;;;7.55;;
66139;SDS011;52945;51.908;8.364;2023-08-12T03:18:30;15.73;;;7.35;;
66139;SDS011;52945;51.908;8.364;2023-08-12T03:21:31;13.65;;;8.05;;
66139;SDS011;52945;51.908;8.364;2023-08-12T03:24:31;16.70;;;7.70;;
66139;SDS011;52945;51.908;8.364;2023-08-12T03:27:32;13.65;;;7.95;;
66139;SDS011;52945;51.908;8.364;2023-08-12T03:30:33;13.10;;;6.70;;
66139;SDS011;52945;51.908;8.364;2023-08-12T03:33:33;13.50;;;7.53;;
66139;SDS011;52945;51.908;8.364;2023-08-12T03:36:34;17.77;;;8.20;;
66139;SDS011;52945;51.908;8.364;2023-08-12T03:39:35;16.52;;;8.32;;
66139;SDS011;52945;51.908;8.364;2023-08-12T03:42:36;17.52;;;8.48;;
66139;SDS011;52945;51.908;8.364;2023-08-12T03:45:42;14.60;;;7.50;;
66139;SDS011;52945;51.908;8.364;2023-08-12T03:48:43;14.52;;;8.15;;
66139;SDS011;52945;51.908;8.364;2023-08-12T03:51:44;15.88;;;7.85;;
66139;SDS011;52945;51.908;8.364;2023-08-12T03:54:45;15.18;;;8.35;;
66139;SDS011;52945;51.908;8.364;2023-08-12T03:57:45;16.33;;;7.95;;
66139;SDS011;52945;51.908;8.364;2023-08-12T04:00:46;14.95;;;7.30;;
66139;SDS011;52945;51.908;8.364;2023-08-12T04:03:46;15.40;;;8.00;;
66139;SDS011;52945;51.908;8.364;2023-08-12T04:06:47;14.40;;;7.43;;
66139;SDS011;52945;51.908;8.364;2023-08-12T04:09:51;15.68;;;8.35;;
66139;SDS011;52945;51.908;8.364;2023-08-12T04:12:51;15.70;;;8.90;;
66139;SDS011;52945;51.908;8.364;2023-08-12T04:15:52;14.35;;;8.20;;
66139;SDS011;52945;51.908;8.364;2023-08-12T04:18:55;15.95;;;8.98;;
66139;SDS011;52945;51.908;8.364;2023-08-12T04:21:56;15.07;;;8.43;;
66139;SDS011;52945;51.908;8.364;2023-08-12T04:24:57;14.07;;;8.20;;
66139;SDS011;52945;51.908;8.364;2023-08-12T04:27:57;17.40;;;9.13;;
66139;SDS011;52945;51.908;8.364;2023-08-12T04:30:58;19.98;;;9.20;;
66139;SDS011;52945;51.908;8.364;2023-08-12T04:33:58;19.88;;;8.68;;
66139;SDS011;52945;51.908;8.364;2023-08-12T04:36:59;17.10;;;8.43;;
66139;SDS011;52945;51.908;8.364;2023-08-12T04:40:00;15.05;;;7.80;;
66139;SDS011;52945;51.908;8.364;2023-08-12T04:43:00;13.82;;;8.27;;
66139;SDS011;52945;51.908;8.364;2023-08-12T04:46:01;15.60;;;8.65;;
66139;SDS011;52945;51.908;8.364;2023-08-12T04:49:02;17.50;;;9.23;;
66139;SDS011;52945;51.908;8.364;2023-08-12T04:52:03;16.65;;;9.43;;
66139;SDS011;52945;51.908;8.364;2023-08-12T04:55:03;15.95;;;8.93;;
66139;SDS011;52945;51.908;8.364;2023-08-12T04:58:04;16.90;;;8.88;;
66139;SDS011;52945;51.908;8.364;2023-08-12T05:01:05;17.05;;;8.73;;
66139;SDS011;52945;51.908;8.364;2023-08-12T05:04:05;17.20;;;9.10;;
66139;SDS011;52945;51.908;8.364;2023-08-12T05:07:06;17.73;;;7.95;;
66139;SDS011;52945;51.908;8.364;2023-08-12T05:10:07;17.52;;;8.80;;
66139;SDS011;52945;51.908;8.364;2023-08-12T05:13:07;18.52;;;9.02;;
66139;SDS011;52945;51.908;8.364;2023-08-12T05:16:08;16.50;;;9.23;;
66139;SDS011;52945;51.908;8.364;2023-08-12T05:19:08;14.95;;;8.57;;
66139;SDS011;52945;51.908;8.364;2023-08-12T05:22:09;18.83;;;9.10;;
66139;SDS011;52945;51.908;8.364;2023-08-12T05:25:10;16.00;;;8.90;;
66139;SDS011;52945;51.908;8.364;2023-08-12T05:28:11;20.75;;;9.93;;
66139;SDS011;52945;51.908;8.364;2023-08-12T05:31:11;14.93;;;8.35;;
66139;SDS011;52945;51.908;8.364;2023-08-12T05:34:12;19.92;;;9.18;;
66139;SDS011;52945;51.908;8.364;2023-08-12T05:37:13;16.10;;;9.30;;
66139;SDS011;52945;51.908;8.364;2023-08-12T05:40:13;15.60;;;8.63;;
66139;SDS011;52945;51.908;8.364;2023-08-12T05:43:14;17.20;;;8.00;;
66139;SDS011;52945;51.908;8.364;2023-08-12T05:46:14;20.13;;;8.73;;
66139;SDS011;52945;51.908;8.364;2023-08-12T05:49:15;17.08;;;8.15;;
66139;SDS011;52945;51.908;8.364;2023-08-12T05:52:16;15.95;;;8.60;;
66139;SDS011;52945;51.908;8.364;2023-08-12T05:55:16;17.80;;;9.93;;
66139;SDS011;52945;51.908;8.364;2023-08-12T05:58:17;16.52;;;9.07;;
66139;SDS011;52945;51.908;8.364;2023-08-12T06:01:18;21.38;;;10.15;;
66139;SDS011;52945;51.908;8.364;2023-08-12T06:04:19;18.27;;;9.48;;
66139;SDS011;52945;51.908;8.364;2023-08-12T06:07:20;18.55;;;9.35;;
66139;SDS011;52945;51.908;8.364;2023-08-12T06:10:20;15.35;;;8.82;;
66139;SDS011;52945;51.908;8.364;2023-08-12T06:13:21;19.02;;;9.38;;
66139;SDS011;52945;51.908;8.364;2023-08-12T06:16:21;19.13;;;10.35;;
66139;SDS011;52945;51.908;8.364;2023-08-12T06:19:22;18.55;;;9.85;;
66139;SDS011;52945;51.908;8.364;2023-08-12T06:22:23;16.02;;;9.07;;
66139;SDS011;52945;51.908;8.364;2023-08-12T06:25:23;16.33;;;8.63;;
66139;SDS011;52945;51.908;8.364;2023-08-12T06:28:24;17.50;;;9.30;;
66139;SDS011;52945;51.908;8.364;2023-08-12T06:31:24;18.20;;;9.30;;
66139;SDS011;52945;51.908;8.364;2023-08-12T06:34:25;16.17;;;8.48;;
66139;SDS011;52945;51.908;8.364;2023-08-12T06:37:26;16.63;;;9.05;;
66139;SDS011;52945;51.908;8.364;2023-08-12T06:40:26;16.80;;;9.27;;
66139;SDS011;52945;51.908;8.364;2023-08-12T06:43:27;22.98;;;10.38;;
66139;SDS011;52945;51.908;8.364;2023-08-12T06:46:28;15.18;;;9.05;;
66139;SDS011;52945;51.908;8.364;2023-08-12T06:49:30;18.30;;;8.95;;
66139;SDS011;52945;51.908;8.364;2023-08-12T06:52:31;17.40;;;9.13;;
66139;SDS011;52945;51.908;8.364;2023-08-12T06:55:31;16.98;;;9.63;;
66139;SDS011;52945;51.908;8.364;2023-08-12T06:58:32;16.52;;;9.10;;
66139;SDS011;52945;51.908;8.364;2023-08-12T07:01:33;18.15;;;9.20;;
66139;SDS011;52945;51.908;8.364;2023-08-12T07:04:33;15.60;;;8.10;;
66139;SDS011;52945;51.908;8.364;2023-08-12T07:07:34;15.27;;;9.30;;
66139;SDS011;52945;51.908;8.364;2023-08-12T07:10:37;16.08;;;8.45;;
66139;SDS011;52945;51.908;8.364;2023-08-12T07:13:39;13.73;;;7.88;;
66139;SDS011;52945;51.908;8.364;2023-08-12T07:16:39;13.95;;;8.25;;
66139;SDS011;52945;51.908;8.364;2023-08-12T07:19:40;18.70;;;9.32;;
66139;SDS011;52945;51.908;8.364;2023-08-12T07:22:40;13.05;;;7.05;;
66139;SDS011;52945;51.908;8.364;2023-08-12T07:25:41;13.70;;;7.35;;
66139;SDS011;52945;51.908;8.364;2023-08-12T07:28:41;13.02;;;7.13;;
66139;SDS011;52945;51.908;8.364;2023-08-12T07:31:42;11.35;;;7.15;;
66139;SDS011;52945;51.908;8.364;2023-08-12T07:34:43;13.02;;;7.40;;
66139;SDS011;52945;51.908;8.364;2023-08-12T07:37:44;13.20;;;7.32;;
66139;SDS011;52945;51.908;8.364;2023-08-12T07:40:44;12.40;;;7.20;;
66139;SDS011;52945;51.908;8.364;2023-08-12T07:43:45;11.82;;;6.93;;
66139;SDS011;52945;51.908;8.364;2023-08-12T07:46:46;13.60;;;8.02;;
66139;SDS011;52945;51.908;8.364;2023-08-12T07:49:46;13.82;;;7.30;;
66139;SDS011;52945;51.908;8.364;2023-08-12T07:52:47;9.68;;;6.35;;
66139;SDS011;52945;51.908;8.364;2023-08-12T07:55:47;9.75;;;6.65;;
66139;SDS011;52945;51.908;8.364;2023-08-12T07:58:48;11.90;;;7.03;;
66139;SDS011;52945;51.908;8.364;2023-08-12T08:01:49;13.23;;;6.63;;
66139;SDS011;52945;51.908;8.364;2023-08-12T08:04:49;12.30;;;7.15;;
66139;SDS011;52945;51.908;8.364;2023-08-12T08:07:50;12.02;;;6.68;;
66139;SDS011;52945;51.908;8.364;2023-08-12T08:10:51;11.00;;;6.22;;
66139;SDS011;52945;51.908;8.364;2023-08-12T08:13:51;13.32;;;6.90;;
66139;SDS011;52945;51.908;8.364;2023-08-12T08:16:52;11.77;;;6.40;;
66139;SDS011;52945;51.908;8.364;2023-08-12T08:19:53;13.35;;;7.53;;
66139;SDS011;52945;51.908;8.364;2023-08-12T08:22:53;13.60;;;7.05;;
66139;SDS011;52945;51.908;8.364;2023-08-12T08:25:55;10.80;;;6.22;;
66139;SDS011;52945;51.908;8.364;2023-08-12T08:28:55;11.07;;;6.75;;
66139;SDS011;52945;51.908;8.364;2023-08-12T08:31:56;10.57;;;6.20;;
66139;SDS011;52945;51.908;8.364;2023-08-12T08:34:56;10.93;;;6.05;;
66139;SDS011;52945;51.908;8.364;2023-08-12T08:37:57;11.25;;;6.28;;
66139;SDS011;52945;51.908;8.364;2023-08-12T08:40:58;12.98;;;6.75;;
66139;SDS011;52945;51.908;8.364;2023-08-12T08:44:01;11.82;;;6.75;;
66139;SDS011;52945;51.908;8.364;2023-08-12T08:47:05;12.07;;;6.93;;
66139;SDS011;52945;51.908;8.364;2023-08-12T08:50:07;14.95;;;7.68;;
66139;SDS011;52945;51.908;8.364;2023-08-12T08:53:09;12.88;;;7.22;;
66139;SDS011;52945;51.908;8.364;2023-08-12T08:56:10;13.32;;;7.60;;
66139;SDS011;52945;51.908;8.364;2023-08-12T08:59:11;10.77;;;6.97;;
66139;SDS011;52945;51.908;8.364;2023-08-12T09:02:18;13.57;;;7.55;;
66139;SDS011;52945;51.908;8.364;2023-08-12T09:05:19;13.40;;;7.18;;
66139;SDS011;52945;51.908;8.364;2023-08-12T09:08:20;13.40;;;7.93;;
66139;SDS011;52945;51.908;8.364;2023-08-12T09:11:22;13.48;;;6.97;;
66139;SDS011;52945;51.908;8.364;2023-08-12T09:14:23;11.32;;;6.28;;
66139;SDS011;52945;51.908;8.364;2023-08-12T09:17:24;10.77;;;6.43;;
66139;SDS011;52945;51.908;8.364;2023-08-12T09:20:25;10.55;;;6.88;;
66139;SDS011;52945;51.908;8.364;2023-08-12T09:23:26;9.57;;;6.25;;
66139;SDS011;52945;51.908;8.364;2023-08-12T09:26:28;10.38;;;6.00;;
66139;SDS011;52945;51.908;8.364;2023-08-12T09:29:29;8.60;;;5.85;;
66139;SDS011;52945;51.908;8.364;2023-08-12T09:32:31;8.20;;;5.22;;
66139;SDS011;52945;51.908;8.364;2023-08-12T09:35:35;6.78;;;4.22;;
66139;SDS011;52945;51.908;8.364;2023-08-12T09:38:35;7.07;;;4.40;;
66139;SDS011;52945;51.908;8.364;2023-08-12T09:41:37;6.97;;;4.50;;
66139;SDS011;52945;51.908;8.364;2023-08-12T09:44:39;6.13;;;4.28;;
66139;SDS011;52945;51.908;8.364;2023-08-12T09:47:41;5.38;;;3.40;;
66139;SDS011;52945;51.908;8.364;2023-08-12T09:50:44;4.95;;;3.38;;
66139;SDS011;52945;51.908;8.364;2023-08-12T09:53:47;5.55;;;3.35;;
66139;SDS011;52945;51.908;8.364;2023-08-12T09:56:49;4.22;;;2.70;;
66139;SDS011;52945;51.908;8.364;2023-08-12T09:59:56;6.10;;;2.67;;
66139;SDS011;52945;51.908;8.364;2023-08-12T10:02:57;3.28;;;2.50;;
66139;SDS011;52945;51.908;8.364;2023-08-12T10:05:59;3.70;;;2.40;;
66139;SDS011;52945;51.908;8.364;2023-08-12T10:09:00;3.70;;;2.05;;
66139;SDS011;52945;51.908;8.364;2023-08-12T10:12:01;2.92;;;2.10;;
66139;SDS011;52945;51.908;8.364;2023-08-12T10:15:03;2.28;;;1.80;;
66139;SDS011;52945;51.908;8.364;2023-08-12T10:18:06;2.28;;;1.90;;
66139;SDS011;52945;51.908;8.364;2023-08-12T10:21:08;2.00;;;1.67;;
66139;SDS011;52945;51.908;8.364;2023-08-12T10:24:10;2.88;;;1.75;;
66139;SDS011;52945;51.908;8.364;2023-08-12T10:27:12;1.70;;;1.60;;
66139;SDS011;52945;51.908;8.364;2023-08-12T10:30:14;1.55;;;1.45;;
66139;SDS011;52945;51.908;8.364;2023-08-12T10:33:15;2.60;;;1.88;;
66139;SDS011;52945;51.908;8.364;2023-08-12T10:36:18;2.45;;;1.90;;
66139;SDS011;52945;51.908;8.364;2023-08-12T10:39:24;1.80;;;1.70;;
66139;SDS011;52945;51.908;8.364;2023-08-12T10:42:42;2.38;;;1.52;;
66139;SDS011;52945;51.908;8.364;2023-08-12T10:45:47;1.67;;;1.30;;
66139;SDS011;52945;51.908;8.364;2023-08-12T10:48:56;2.35;;;1.67;;
66139;SDS011;52945;51.908;8.364;2023-08-12T10:52:03;2.33;;;1.60;;
66139;SDS011;52945;51.908;8.364;2023-08-12T10:55:17;2.45;;;1.30;;
66139;SDS011;52945;51.908;8.364;2023-08-12T10:58:26;1.63;;;1.48;;
66139;SDS011;52945;51.908;8.364;2023-08-12T11:01:28;2.90;;;1.38;;
66139;SDS011;52945;51.908;8.364;2023-08-12T11:04:36;4.75;;;2.63;;
66139;SDS011;52945;51.908;8.364;2023-08-12T11:10:38;1.67;;;1.27;;
66139;SDS011;52945;51.908;8.364;2023-08-12T11:13:47;1.20;;;1.10;;
66139;SDS011;52945;51.908;8.364;2023-08-12T11:16:52;1.05;;;0.90;;
66139;SDS011;52945;51.908;8.364;2023-08-12T11:19:53;1.10;;;1.00;;
66139;SDS011;52945;51.908;8.364;2023-08-12T11:22:55;1.35;;;1.10;;
66139;SDS011;52945;51.908;8.364;2023-08-12T11:25:56;1.35;;;0.90;;
66139;SDS011;52945;51.908;8.364;2023-08-12T11:28:58;1.23;;;0.80;;
66139;SDS011;52945;51.908;8.364;2023-08-12T11:31:58;0.98;;;0.90;;
66139;SDS011;52945;51.908;8.364;2023-08-12T11:34:59;0.90;;;0.70;;
66139;SDS011;52945;51.908;8.364;2023-08-12T11:38:00;1.02;;;1.02;;
66139;SDS011;52945;51.908;8.364;2023-08-12T11:41:01;1.77;;;0.98;;
66139;SDS011;52945;51.908;8.364;2023-08-12T11:44:03;1.10;;;1.00;;
66139;SDS011;52945;51.908;8.364;2023-08-12T11:47:04;0.90;;;0.90;;
66139;SDS011;52945;51.908;8.364;2023-08-12T11:50:05;1.73;;;1.08;;
66139;SDS011;52945;51.908;8.364;2023-08-12T11:53:07;1.95;;;1.00;;
66139;SDS011;52945;51.908;8.364;2023-08-12T11:56:07;1.80;;;1.50;;
66139;SDS011;52945;51.908;8.364;2023-08-12T11:59:08;1.25;;;1.00;;
66139;SDS011;52945;51.908;8.364;2023-08-12T12:02:10;1.10;;;1.00;;
66139;SDS011;52945;51.908;8.364;2023-08-12T12:05:11;1.65;;;1.40;;
66139;SDS011;52945;51.908;8.364;2023-08-12T12:08:13;1.55;;;0.95;;
66139;SDS011;52945;51.908;8.364;2023-08-12T12:11:13;3.17;;;1.00;;
66139;SDS011;52945;51.908;8.364;2023-08-12T12:14:14;1.27;;;1.10;;
66139;SDS011;52945;51.908;8.364;2023-08-12T12:17:15;0.90;;;0.90;;
66139;SDS011;52945;51.908;8.364;2023-08-12T12:20:16;1.90;;;1.10;;
66139;SDS011;52945;51.908;8.364;2023-08-12T12:23:17;1.52;;;1.10;;
66139;SDS011;52945;51.908;8.364;2023-08-12T12:26:17;2.42;;;1.00;;
66139;SDS011;52945;51.908;8.364;2023-08-12T12:29:18;1.48;;;0.80;;
66139;SDS011;52945;51.908;8.364;2023-08-12T12:32:19;0.80;;;0.80;;
66139;SDS011;52945;51.908;8.364;2023-08-12T12:35:20;1.05;;;0.95;;
66139;SDS011;52945;51.908;8.364;2023-08-12T12:38:20;1.17;;;1.08;;
66139;SDS011;52945;51.908;8.364;2023-08-12T12:41:21;1.13;;;1.05;;
66139;SDS011;52945;51.908;8.364;2023-08-12T12:44:22;1.75;;;1.42;;
66139;SDS011;52945;51.908;8.364;2023-08-12T12:47:23;1.25;;;0.77;;
66139;SDS011;52945;51.908;8.364;2023-08-12T12:50:23;2.33;;;1.52;;
66139;SDS011;52945;51.908;8.364;2023-08-12T12:53:24;1.30;;;1.20;;
66139;SDS011;52945;51.908;8.364;2023-08-12T12:56:25;1.73;;;1.17;;
66139;SDS011;52945;51.908;8.364;2023-08-12T12:59:25;1.80;;;1.60;;
66139;SDS011;52945;51.908;8.364;2023-08-12T13:02:26;1.10;;;1.00;;
66139;SDS011;52945;51.908;8.364;2023-08-12T13:05:26;2.55;;;1.27;;
66139;SDS011;52945;51.908;8.364;2023-08-12T13:08:28;1.08;;;1.00;;
66139;SDS011;52945;51.908;8.364;2023-08-12T13:11:31;1.30;;;1.10;;
66139;SDS011;52945;51.908;8.364;2023-08-12T13:14:33;0.90;;;0.80;;
66139;SDS011;52945;51.908;8.364;2023-08-12T13:17:34;1.33;;;0.88;;
66139;SDS011;52945;51.908;8.364;2023-08-12T13:20:35;1.25;;;0.65;;
66139;SDS011;52945;51.908;8.364;2023-08-12T13:23:36;1.42;;;0.90;;
66139;SDS011;52945;51.908;8.364;2023-08-12T13:26:36;0.93;;;0.90;;
66139;SDS011;52945;51.908;8.364;2023-08-12T13:29:37;1.17;;;1.10;;
66139;SDS011;52945;51.908;8.364;2023-08-12T13:32:38;1.63;;;1.17;;
66139;SDS011;52945;51.908;8.364;2023-08-12T13:35:38;1.25;;;1.00;;
66139;SDS011;52945;51.908;8.364;2023-08-12T13:38:39;1.30;;;1.10;;
66139;SDS011;52945;51.908;8.364;2023-08-12T13:41:39;1.30;;;1.20;;
66139;SDS011;52945;51.908;8.364;2023-08-12T13:44:40;1.67;;;1.25;;
66139;SDS011;52945;51.908;8.364;2023-08-12T13:47:41;2.78;;;1.48;;
66139;SDS011;52945;51.908;8.364;2023-08-12T13:50:41;1.63;;;1.13;;
66139;SDS011;52945;51.908;8.364;2023-08-12T13:53:42;1.25;;;1.15;;
66139;SDS011;52945;51.908;8.364;2023-08-12T13:56:42;2.05;;;1.10;;
66139;SDS011;52945;51.908;8.364;2023-08-12T13:59:43;1.40;;;1.30;;
66139;SDS011;52945;51.908;8.364;2023-08-12T14:02:44;1.50;;;1.20;;
66139;SDS011;52945;51.908;8.364;2023-08-12T14:05:44;1.88;;;1.67;;
66139;SDS011;52945;51.908;8.364;2023-08-12T14:08:45;1.95;;;1.65;;
66139;SDS011;52945;51.908;8.364;2023-08-12T14:11:46;1.70;;;1.30;;
66139;SDS011;52945;51.908;8.364;2023-08-12T14:14:46;1.52;;;1.40;;
66139;SDS011;52945;51.908;8.364;2023-08-12T14:17:48;1.67;;;1.30;;
66139;SDS011;52945;51.908;8.364;2023-08-12T14:20:49;1.35;;;1.20;;
66139;SDS011;52945;51.908;8.364;2023-08-12T14:23:49;1.50;;;1.20;;
66139;SDS011;52945;51.908;8.364;2023-08-12T14:26:50;3.03;;;1.50;;
66139;SDS011;52945;51.908;8.364;2023-08-12T14:29:50;2.35;;;1.50;;
66139;SDS011;52945;51.908;8.364;2023-08-12T14:32:51;1.40;;;1.30;;
66139;SDS011;52945;51.908;8.364;2023-08-12T14:35:52;5.20;;;2.70;;
66139;SDS011;52945;51.908;8.364;2023-08-12T14:38:54;3.95;;;2.25;;
66139;SDS011;52945;51.908;8.364;2023-08-12T14:41:54;2.13;;;1.60;;
66139;SDS011;52945;51.908;8.364;2023-08-12T14:44:55;1.52;;;1.23;;
66139;SDS011;52945;51.908;8.364;2023-08-12T14:47:55;3.30;;;1.80;;
66139;SDS011;52945;51.908;8.364;2023-08-12T14:50:56;2.97;;;1.70;;
66139;SDS011;52945;51.908;8.364;2023-08-12T14:53:57;1.33;;;1.23;;
66139;SDS011;52945;51.908;8.364;2023-08-12T14:56:57;1.65;;;1.15;;
66139;SDS011;52945;51.908;8.364;2023-08-12T14:59:58;1.50;;;1.23;;
66139;SDS011;52945;51.908;8.364;2023-08-12T15:02:58;1.55;;;1.40;;
66139;SDS011;52945;51.908;8.364;2023-08-12T15:06:00;1.63;;;1.30;;
66139;SDS011;52945;51.908;8.364;2023-08-12T15:09:04;1.30;;;1.08;;
66139;SDS011;52945;51.908;8.364;2023-08-12T15:12:05;1.30;;;0.95;;
66139;SDS011;52945;51.908;8.364;2023-08-12T15:15:05;1.73;;;1.08;;
66139;SDS011;52945;51.908;8.364;2023-08-12T15:18:06;1.45;;;1.05;;
66139;SDS011;52945;51.908;8.364;2023-08-12T15:21:07;2.38;;;1.23;;
66139;SDS011;52945;51.908;8.364;2023-08-12T15:24:08;1.10;;;0.90;;
66139;SDS011;52945;51.908;8.364;2023-08-12T15:27:09;1.25;;;0.73;;
66139;SDS011;52945;51.908;8.364;2023-08-12T15:30:09;1.02;;;0.88;;
66139;SDS011;52945;51.908;8.364;2023-08-12T15:33:10;1.15;;;0.90;;
66139;SDS011;52945;51.908;8.364;2023-08-12T15:36:11;1.67;;;1.25;;
66139;SDS011;52945;51.908;8.364;2023-08-12T15:39:12;2.10;;;1.67;;
66139;SDS011;52945;51.908;8.364;2023-08-12T15:42:12;1.42;;;1.15;;
66139;SDS011;52945;51.908;8.364;2023-08-12T15:45:13;1.40;;;1.30;;
66139;SDS011;52945;51.908;8.364;2023-08-12T15:48:14;4.70;;;1.60;;
66139;SDS011;52945;51.908;8.364;2023-08-12T15:51:14;2.92;;;1.55;;
66139;SDS011;52945;51.908;8.364;2023-08-12T15:54:15;3.38;;;2.05;;
66139;SDS011;52945;51.908;8.364;2023-08-12T15:57:15;4.13;;;2.28;;
66139;SDS011;52945;51.908;8.364;2023-08-12T16:00:16;3.72;;;1.38;;
66139;SDS011;52945;51.908;8.364;2023-08-12T16:03:17;1.30;;;1.20;;
66139;SDS011;52945;51.908;8.364;2023-08-12T16:06:18;1.38;;;0.75;;
66139;SDS011;52945;51.908;8.364;2023-08-12T16:09:18;1.23;;;1.13;;
66139;SDS011;52945;51.908;8.364;2023-08-12T16:12:19;1.15;;;1.00;;
66139;SDS011;52945;51.908;8.364;2023-08-12T16:15:19;1.25;;;0.93;;
66139;SDS011;52945;51.908;8.364;2023-08-12T16:18:20;1.33;;;1.10;;
66139;SDS011;52945;51.908;8.364;2023-08-12T16:21:21;2.60;;;1.05;;
66139;SDS011;52945;51.908;8.364;2023-08-12T16:24:21;1.27;;;1.00;;
66139;SDS011;52945;51.908;8.364;2023-08-12T16:27:22;1.90;;;0.90;;
66139;SDS011;52945;51.908;8.364;2023-08-12T16:30:22;1.63;;;0.90;;
66139;SDS011;52945;51.908;8.364;2023-08-12T16:33:23;1.35;;;1.00;;
66139;SDS011;52945;51.908;8.364;2023-08-12T16:36:24;1.55;;;1.15;;
66139;SDS011;52945;51.908;8.364;2023-08-12T16:39:24;1.30;;;1.10;;
66139;SDS011;52945;51.908;8.364;2023-08-12T16:42:25;5.57;;;1.30;;
66139;SDS011;52945;51.908;8.364;2023-08-12T16:45:25;1.35;;;1.05;;
66139;SDS011;52945;51.908;8.364;2023-08-12T16:48:26;1.88;;;1.45;;
66139;SDS011;52945;51.908;8.364;2023-08-12T16:51:27;1.75;;;1.15;;
66139;SDS011;52945;51.908;8.364;2023-08-12T16:54:27;1.88;;;1.40;;
66139;SDS011;52945;51.908;8.364;2023-08-12T16:57:28;3.17;;;1.40;;
66139;SDS011;52945;51.908;8.364;2023-08-12T17:00:29;1.40;;;1.30;;
66139;SDS011;52945;51.908;8.364;2023-08-12T17:03:29;1.35;;;1.25;;
66139;SDS011;52945;51.908;8.364;2023-08-12T17:06:30;2.40;;;1.92;;
66139;SDS011;52945;51.908;8.364;2023-08-12T17:09:30;2.42;;;1.80;;
66139;SDS011;52945;51.908;8.364;2023-08-12T17:12:33;4.28;;;2.25;;
66139;SDS011;52945;51.908;8.364;2023-08-12T17:15:34;2.25;;;1.83;;
66139;SDS011;52945;51.908;8.364;2023-08-12T17:18:34;2.50;;;2.20;;
66139;SDS011;52945;51.908;8.364;2023-08-12T17:21:35;2.67;;;1.90;;
66139;SDS011;52945;51.908;8.364;2023-08-12T17:24:35;3.45;;;2.00;;
66139;SDS011;52945;51.908;8.364;2023-08-12T17:27:36;2.10;;;1.90;;
66139;SDS011;52945;51.908;8.364;2023-08-12T17:30:36;2.20;;;1.95;;
66139;SDS011;52945;51.908;8.364;2023-08-12T17:33:37;2.60;;;2.40;;
66139;SDS011;52945;51.908;8.364;2023-08-12T17:36:39;5.38;;;2.35;;
66139;SDS011;52945;51.908;8.364;2023-08-12T17:39:39;3.65;;;2.30;;
66139;SDS011;52945;51.908;8.364;2023-08-12T17:42:40;3.03;;;2.10;;
66139;SDS011;52945;51.908;8.364;2023-08-12T17:45:40;3.08;;;2.00;;
66139;SDS011;52945;51.908;8.364;2023-08-12T17:48:41;3.30;;;2.15;;
66139;SDS011;52945;51.908;8.364;2023-08-12T17:51:41;3.70;;;2.45;;
66139;SDS011;52945;51.908;8.364;2023-08-12T17:54:42;3.13;;;2.10;;
66139;SDS011;52945;51.908;8.364;2023-08-12T17:57:43;2.80;;;2.22;;
66139;SDS011;52945;51.908;8.364;2023-08-12T18:00:43;2.35;;;1.80;;
66139;SDS011;52945;51.908;8.364;2023-08-12T18:03:44;2.40;;;2.10;;
66139;SDS011;52945;51.908;8.364;2023-08-12T18:06:45;4.20;;;2.38;;
66139;SDS011;52945;51.908;8.364;2023-08-12T18:09:45;3.47;;;2.22;;
66139;SDS011;52945;51.908;8.364;2023-08-12T18:12:46;4.80;;;2.33;;